sensor_id;sensor_type;location;lat;lon;timestamp;temperature;humidity
3638;DHT22;1835;50.068;8.154;2022-11-15T00:01:15;8.80;99.90
3638;DHT22;1835;50.068;8.154;2022-11-15T00:03:46;9.00;99.90
3638;DHT22;1835;50.068;8.154;2022-11-15T00:06:14;8.90;99.90
3638;DHT22;1835;50.068;8.154;2022-11-15T00:08:42;8.90;99.90
3638;DHT22;1835;50.068;8.154;2022-11-15T00:11:11;8.80;99.90
3638;DHT22;1835;50.068;8.154;2022-11-15T00:13:40;8.90;99.90
3638;DHT22;1835;50.068;8.154;2022-11-15T00:16:08;9.00;99.90
3638;DHT22;1835;50.068;8.154;2022-11-15T00:18:39;9.00;99.90
3638;DHT22;1835;50.068;8.154;2022-11-15T00:21:14;9.00;99.90
3638;DHT22;1835;50.068;8.154;2022-11-15T00:23:42;9.00;99.90
3638;DHT22;1835;50.068;8.154;2022-11-15T00:26:12;9.10;99.90
3638;DHT22;1835;50.068;8.154;2022-11-15T00:28:41;9.10;99.90
3638;DHT22;1835;50.068;8.154;2022-11-15T00:31:12;8.90;99.90
3638;DHT22;1835;50.068;8.154;2022-11-15T00:33:44;8.90;99.90
3638;DHT22;1835;50.068;8.154;2022-11-15T00:36:12;8.90;99.90
3638;DHT22;1835;50.068;8.154;2022-11-15T00:38:40;9.00;99.90
3638;DHT22;1835;50.068;8.154;2022-11-15T00:41:09;9.10;99.90
3638;DHT22;1835;50.068;8.154;2022-11-15T00:43:37;9.10;99.90
3638;DHT22;1835;50.068;8.154;2022-11-15T00:46:06;9.20;99.90
3638;DHT22;1835;50.068;8.154;2022-11-15T00:48:36;9.20;99.90
3638;DHT22;1835;50.068;8.154;2022-11-15T00:51:05;9.10;99.90
3638;DHT22;1835;50.068;8.154;2022-11-15T00:53:34;9.00;99.90
3638;DHT22;1835;50.068;8.154;2022-11-15T00:56:02;8.90;99.90
3638;DHT22;1835;50.068;8.154;2022-11-15T00:58:30;9.10;99.90
3638;DHT22;1835;50.068;8.154;2022-11-15T01:01:05;9.20;99.90
3638;DHT22;1835;50.068;8.154;2022-11-15T01:03:35;9.20;99.90
3638;DHT22;1835;50.068;8.154;2022-11-15T01:06:03;9.30;99.90
3638;DHT22;1835;50.068;8.154;2022-11-15T01:08:34;9.40;99.90
3638;DHT22;1835;50.068;8.154;2022-11-15T01:11:03;9.30;99.90
3638;DHT22;1835;50.068;8.154;2022-11-15T01:13:32;9.30;99.90
3638;DHT22;1835;50.068;8.154;2022-11-15T01:16:06;9.40;99.90
3638;DHT22;1835;50.068;8.154;2022-11-15T01:18:36;9.40;99.90
3638;DHT22;1835;50.068;8.154;2022-11-15T01:21:07;9.30;99.90
3638;DHT22;1835;50.068;8.154;2022-11-15T01:23:36;9.20;99.90
3638;DHT22;1835;50.068;8.154;2022-11-15T01:26:06;9.10;99.90
3638;DHT22;1835;50.068;8.154;2022-11-15T01:28:36;9.20;99.90
3638;DHT22;1835;50.068;8.154;2022-11-15T01:31:09;9.40;99.90
3638;DHT22;1835;50.068;8.154;2022-11-15T01:33:39;9.50;99.90
3638;DHT22;1835;50.068;8.154;2022-11-15T01:36:12;9.60;99.90
3638;DHT22;1835;50.068;8.154;2022-11-15T01:38:41;9.40;99.90
3638;DHT22;1835;50.068;8.154;2022-11-15T01:41:15;9.10;99.90
3638;DHT22;1835;50.068;8.154;2022-11-15T01:43:46;9.20;99.90
3638;DHT22;1835;50.068;8.154;2022-11-15T01:46:23;9.20;99.90
3638;DHT22;1835;50.068;8.154;2022-11-15T01:48:56;9.40;99.90
3638;DHT22;1835;50.068;8.154;2022-11-15T01:51:29;9.50;99.90
3638;DHT22;1835;50.068;8.154;2022-11-15T01:54:00;9.60;99.90
3638;DHT22;1835;50.068;8.154;2022-11-15T01:56:33;9.60;99.90
3638;DHT22;1835;50.068;8.154;2022-11-15T01:59:05;9.70;99.90
3638;DHT22;1835;50.068;8.154;2022-11-15T02:01:35;9.70;99.90
3638;DHT22;1835;50.068;8.154;2022-11-15T02:04:08;9.70;99.90
3638;DHT22;1835;50.068;8.154;2022-11-15T02:06:41;9.80;99.90
3638;DHT22;1835;50.068;8.154;2022-11-15T02:09:11;9.90;99.90
3638;DHT22;1835;50.068;8.154;2022-11-15T02:11:40;9.90;99.90
3638;DHT22;1835;50.068;8.154;2022-11-15T02:14:09;10.10;99.90
3638;DHT22;1835;50.068;8.154;2022-11-15T02:16:46;9.90;99.90
3638;DHT22;1835;50.068;8.154;2022-11-15T02:19:29;9.80;99.90
3638;DHT22;1835;50.068;8.154;2022-11-15T02:22:22;10.00;99.90
3638;DHT22;1835;50.068;8.154;2022-11-15T02:25:29;10.00;99.90
3638;DHT22;1835;50.068;8.154;2022-11-15T02:31:19;9.90;99.90
3638;DHT22;1835;50.068;8.154;2022-11-15T02:33:59;9.80;99.90
3638;DHT22;1835;50.068;8.154;2022-11-15T02:36:35;10.00;99.90
3638;DHT22;1835;50.068;8.154;2022-11-15T02:39:13;10.10;99.90
3638;DHT22;1835;50.068;8.154;2022-11-15T02:41:49;10.10;99.90
3638;DHT22;1835;50.068;8.154;2022-11-15T02:44:24;10.10;99.90
3638;DHT22;1835;50.068;8.154;2022-11-15T02:46:58;10.00;99.90
3638;DHT22;1835;50.068;8.154;2022-11-15T02:49:43;9.80;99.90
3638;DHT22;1835;50.068;8.154;2022-11-15T02:52:15;9.90;99.90
3638;DHT22;1835;50.068;8.154;2022-11-15T02:54:53;10.10;99.90
3638;DHT22;1835;50.068;8.154;2022-11-15T02:57:30;10.00;99.90
3638;DHT22;1835;50.068;8.154;2022-11-15T03:00:07;10.10;99.90
3638;DHT22;1835;50.068;8.154;2022-11-15T03:03:00;10.10;99.90
3638;DHT22;1835;50.068;8.154;2022-11-15T03:05:42;10.00;99.90
3638;DHT22;1835;50.068;8.154;2022-11-15T03:08:20;9.90;99.90
3638;DHT22;1835;50.068;8.154;2022-11-15T03:10:57;10.10;99.90
3638;DHT22;1835;50.068;8.154;2022-11-15T03:13:37;10.20;99.90
3638;DHT22;1835;50.068;8.154;2022-11-15T03:16:09;10.10;99.90
3638;DHT22;1835;50.068;8.154;2022-11-15T03:18:43;10.20;99.90
3638;DHT22;1835;50.068;8.154;2022-11-15T03:21:14;10.40;99.90
3638;DHT22;1835;50.068;8.154;2022-11-15T03:23:43;10.20;99.90
3638;DHT22;1835;50.068;8.154;2022-11-15T03:26:13;10.10;99.90
3638;DHT22;1835;50.068;8.154;2022-11-15T03:28:45;10.10;99.90
3638;DHT22;1835;50.068;8.154;2022-11-15T03:31:18;10.20;99.90
3638;DHT22;1835;50.068;8.154;2022-11-15T03:34:08;10.30;99.90
3638;DHT22;1835;50.068;8.154;2022-11-15T03:36:39;10.40;99.90
3638;DHT22;1835;50.068;8.154;2022-11-15T03:39:08;10.40;99.90
3638;DHT22;1835;50.068;8.154;2022-11-15T03:41:46;10.30;99.90
3638;DHT22;1835;50.068;8.154;2022-11-15T03:44:23;10.20;99.90
3638;DHT22;1835;50.068;8.154;2022-11-15T03:47:03;10.40;99.90
3638;DHT22;1835;50.068;8.154;2022-11-15T03:49:37;10.30;99.90
3638;DHT22;1835;50.068;8.154;2022-11-15T03:52:07;10.30;99.90
3638;DHT22;1835;50.068;8.154;2022-11-15T03:54:48;10.40;99.90
3638;DHT22;1835;50.068;8.154;2022-11-15T03:57:20;10.50;99.90
3638;DHT22;1835;50.068;8.154;2022-11-15T03:59:48;10.60;99.90
3638;DHT22;1835;50.068;8.154;2022-11-15T04:02:16;10.70;99.90
3638;DHT22;1835;50.068;8.154;2022-11-15T04:04:46;10.50;99.90
3638;DHT22;1835;50.068;8.154;2022-11-15T04:07:14;10.40;99.90
3638;DHT22;1835;50.068;8.154;2022-11-15T04:09:42;10.40;99.90
3638;DHT22;1835;50.068;8.154;2022-11-15T04:12:24;10.30;99.90
3638;DHT22;1835;50.068;8.154;2022-11-15T04:14:59;10.50;99.90
3638;DHT22;1835;50.068;8.154;2022-11-15T04:17:38;10.40;99.90
3638;DHT22;1835;50.068;8.154;2022-11-15T04:20:11;10.30;99.90
3638;DHT22;1835;50.068;8.154;2022-11-15T04:22:58;10.20;99.90
3638;DHT22;1835;50.068;8.154;2022-11-15T04:25:45;10.30;99.90
3638;DHT22;1835;50.068;8.154;2022-11-15T04:28:15;10.40;99.90
3638;DHT22;1835;50.068;8.154;2022-11-15T04:30:43;10.40;99.90
3638;DHT22;1835;50.068;8.154;2022-11-15T04:33:11;10.50;99.90
3638;DHT22;1835;50.068;8.154;2022-11-15T04:35:41;10.30;99.90
3638;DHT22;1835;50.068;8.154;2022-11-15T04:38:10;10.30;99.90
3638;DHT22;1835;50.068;8.154;2022-11-15T04:40:38;10.40;99.90
3638;DHT22;1835;50.068;8.154;2022-11-15T04:43:06;10.40;99.90
3638;DHT22;1835;50.068;8.154;2022-11-15T04:45:34;10.60;99.90
3638;DHT22;1835;50.068;8.154;2022-11-15T04:48:02;10.50;99.90
3638;DHT22;1835;50.068;8.154;2022-11-15T04:50:30;10.40;99.90
3638;DHT22;1835;50.068;8.154;2022-11-15T04:53:00;10.30;99.90
3638;DHT22;1835;50.068;8.154;2022-11-15T04:55:28;10.40;99.90
3638;DHT22;1835;50.068;8.154;2022-11-15T04:57:59;10.40;99.90
3638;DHT22;1835;50.068;8.154;2022-11-15T05:00:28;10.40;99.90
3638;DHT22;1835;50.068;8.154;2022-11-15T05:02:57;10.40;99.90
3638;DHT22;1835;50.068;8.154;2022-11-15T05:05:42;10.30;99.90
3638;DHT22;1835;50.068;8.154;2022-11-15T05:08:11;10.20;99.90
3638;DHT22;1835;50.068;8.154;2022-11-15T05:10:39;10.20;99.90
3638;DHT22;1835;50.068;8.154;2022-11-15T05:13:07;10.20;99.90
3638;DHT22;1835;50.068;8.154;2022-11-15T05:15:35;10.30;99.90
3638;DHT22;1835;50.068;8.154;2022-11-15T05:18:03;10.30;99.90
3638;DHT22;1835;50.068;8.154;2022-11-15T05:20:31;10.40;99.90
3638;DHT22;1835;50.068;8.154;2022-11-15T05:23:00;10.30;99.90
3638;DHT22;1835;50.068;8.154;2022-11-15T05:25:29;10.20;99.90
3638;DHT22;1835;50.068;8.154;2022-11-15T05:27:57;10.30;99.90
3638;DHT22;1835;50.068;8.154;2022-11-15T05:30:25;10.40;99.90
3638;DHT22;1835;50.068;8.154;2022-11-15T05:32:53;10.30;99.90
3638;DHT22;1835;50.068;8.154;2022-11-15T05:35:27;10.20;99.90
3638;DHT22;1835;50.068;8.154;2022-11-15T05:37:59;10.10;99.90
3638;DHT22;1835;50.068;8.154;2022-11-15T05:40:28;10.20;99.90
3638;DHT22;1835;50.068;8.154;2022-11-15T05:42:58;10.20;99.90
3638;DHT22;1835;50.068;8.154;2022-11-15T05:45:28;10.20;99.90
3638;DHT22;1835;50.068;8.154;2022-11-15T05:47:58;10.20;99.90
3638;DHT22;1835;50.068;8.154;2022-11-15T05:50:28;10.20;99.90
3638;DHT22;1835;50.068;8.154;2022-11-15T05:52:56;10.20;99.90
3638;DHT22;1835;50.068;8.154;2022-11-15T05:55:32;10.20;99.90
3638;DHT22;1835;50.068;8.154;2022-11-15T05:58:01;10.10;99.90
3638;DHT22;1835;50.068;8.154;2022-11-15T06:00:29;10.20;99.90
3638;DHT22;1835;50.068;8.154;2022-11-15T06:02:57;10.30;99.90
3638;DHT22;1835;50.068;8.154;2022-11-15T06:05:25;10.20;99.90
3638;DHT22;1835;50.068;8.154;2022-11-15T06:07:57;10.20;99.90
3638;DHT22;1835;50.068;8.154;2022-11-15T06:10:25;10.30;99.90
3638;DHT22;1835;50.068;8.154;2022-11-15T06:12:58;10.30;99.90
3638;DHT22;1835;50.068;8.154;2022-11-15T06:15:27;10.10;99.90
3638;DHT22;1835;50.068;8.154;2022-11-15T06:17:56;9.60;99.90
3638;DHT22;1835;50.068;8.154;2022-11-15T06:20:25;9.40;99.90
3638;DHT22;1835;50.068;8.154;2022-11-15T06:22:56;9.30;99.90
3638;DHT22;1835;50.068;8.154;2022-11-15T06:25:25;9.40;99.90
3638;DHT22;1835;50.068;8.154;2022-11-15T06:27:55;9.40;99.90
3638;DHT22;1835;50.068;8.154;2022-11-15T06:30:26;9.20;99.90
3638;DHT22;1835;50.068;8.154;2022-11-15T06:33:01;9.40;99.90
3638;DHT22;1835;50.068;8.154;2022-11-15T06:35:33;9.60;99.90
3638;DHT22;1835;50.068;8.154;2022-11-15T06:38:03;9.70;99.90
3638;DHT22;1835;50.068;8.154;2022-11-15T06:40:33;9.70;99.90
3638;DHT22;1835;50.068;8.154;2022-11-15T06:43:02;9.80;99.90
3638;DHT22;1835;50.068;8.154;2022-11-15T06:45:32;10.00;99.90
3638;DHT22;1835;50.068;8.154;2022-11-15T06:48:00;10.20;99.90
3638;DHT22;1835;50.068;8.154;2022-11-15T06:50:28;10.40;99.90
3638;DHT22;1835;50.068;8.154;2022-11-15T06:53:01;10.50;99.90
3638;DHT22;1835;50.068;8.154;2022-11-15T06:55:29;10.60;99.90
3638;DHT22;1835;50.068;8.154;2022-11-15T06:57:57;10.50;99.90
3638;DHT22;1835;50.068;8.154;2022-11-15T07:00:25;10.50;99.90
3638;DHT22;1835;50.068;8.154;2022-11-15T07:02:55;10.40;99.90
3638;DHT22;1835;50.068;8.154;2022-11-15T07:05:24;10.20;99.90
3638;DHT22;1835;50.068;8.154;2022-11-15T07:07:53;10.30;99.90
3638;DHT22;1835;50.068;8.154;2022-11-15T07:10:23;10.50;99.90
3638;DHT22;1835;50.068;8.154;2022-11-15T07:12:52;10.60;99.90
3638;DHT22;1835;50.068;8.154;2022-11-15T07:15:23;10.60;99.90
3638;DHT22;1835;50.068;8.154;2022-11-15T07:17:51;10.50;99.90
3638;DHT22;1835;50.068;8.154;2022-11-15T07:20:21;10.60;99.90
3638;DHT22;1835;50.068;8.154;2022-11-15T07:22:49;10.60;99.90
3638;DHT22;1835;50.068;8.154;2022-11-15T07:25:18;10.60;99.90
3638;DHT22;1835;50.068;8.154;2022-11-15T07:27:54;10.70;99.90
3638;DHT22;1835;50.068;8.154;2022-11-15T07:30:23;10.80;99.90
3638;DHT22;1835;50.068;8.154;2022-11-15T07:32:53;10.90;99.90
3638;DHT22;1835;50.068;8.154;2022-11-15T07:35:24;10.70;99.90
3638;DHT22;1835;50.068;8.154;2022-11-15T07:37:55;10.90;99.90
3638;DHT22;1835;50.068;8.154;2022-11-15T07:40:24;10.70;99.90
3638;DHT22;1835;50.068;8.154;2022-11-15T07:42:52;10.80;99.90
3638;DHT22;1835;50.068;8.154;2022-11-15T07:45:21;11.00;99.90
3638;DHT22;1835;50.068;8.154;2022-11-15T07:47:49;10.90;99.90
3638;DHT22;1835;50.068;8.154;2022-11-15T07:50:22;11.00;99.90
3638;DHT22;1835;50.068;8.154;2022-11-15T07:52:53;10.90;99.90
3638;DHT22;1835;50.068;8.154;2022-11-15T07:55:22;10.90;99.90
3638;DHT22;1835;50.068;8.154;2022-11-15T07:57:50;10.80;99.90
3638;DHT22;1835;50.068;8.154;2022-11-15T08:00:19;11.10;99.90
3638;DHT22;1835;50.068;8.154;2022-11-15T08:02:50;10.90;99.90
3638;DHT22;1835;50.068;8.154;2022-11-15T08:05:19;10.90;99.90
3638;DHT22;1835;50.068;8.154;2022-11-15T08:07:48;10.90;99.90
3638;DHT22;1835;50.068;8.154;2022-11-15T08:10:18;11.10;99.90
3638;DHT22;1835;50.068;8.154;2022-11-15T08:12:47;11.20;99.90
3638;DHT22;1835;50.068;8.154;2022-11-15T08:15:15;11.30;99.90
3638;DHT22;1835;50.068;8.154;2022-11-15T08:17:43;11.30;99.90
3638;DHT22;1835;50.068;8.154;2022-11-15T08:20:11;11.30;99.90
3638;DHT22;1835;50.068;8.154;2022-11-15T08:22:39;11.20;99.90
3638;DHT22;1835;50.068;8.154;2022-11-15T08:25:09;11.10;99.90
3638;DHT22;1835;50.068;8.154;2022-11-15T08:27:37;11.10;99.90
3638;DHT22;1835;50.068;8.154;2022-11-15T08:30:06;11.20;99.90
3638;DHT22;1835;50.068;8.154;2022-11-15T08:32:35;11.30;99.90
3638;DHT22;1835;50.068;8.154;2022-11-15T08:35:04;11.30;99.90
3638;DHT22;1835;50.068;8.154;2022-11-15T08:37:33;11.30;99.90
3638;DHT22;1835;50.068;8.154;2022-11-15T08:40:01;11.30;99.90
3638;DHT22;1835;50.068;8.154;2022-11-15T08:42:31;11.20;99.90
3638;DHT22;1835;50.068;8.154;2022-11-15T08:44:59;11.20;99.90
3638;DHT22;1835;50.068;8.154;2022-11-15T08:47:27;11.20;99.90
3638;DHT22;1835;50.068;8.154;2022-11-15T08:49:55;11.30;99.90
3638;DHT22;1835;50.068;8.154;2022-11-15T08:52:23;11.40;99.90
3638;DHT22;1835;50.068;8.154;2022-11-15T08:54:51;11.40;99.90
3638;DHT22;1835;50.068;8.154;2022-11-15T08:57:20;11.40;99.90
3638;DHT22;1835;50.068;8.154;2022-11-15T08:59:50;11.50;99.90
3638;DHT22;1835;50.068;8.154;2022-11-15T09:02:18;11.50;99.90
3638;DHT22;1835;50.068;8.154;2022-11-15T09:04:46;11.60;99.90
3638;DHT22;1835;50.068;8.154;2022-11-15T09:07:15;11.70;99.90
3638;DHT22;1835;50.068;8.154;2022-11-15T09:09:43;11.80;99.90
3638;DHT22;1835;50.068;8.154;2022-11-15T09:12:11;11.80;99.90
3638;DHT22;1835;50.068;8.154;2022-11-15T09:14:39;11.80;99.90
3638;DHT22;1835;50.068;8.154;2022-11-15T09:17:09;11.80;99.90
3638;DHT22;1835;50.068;8.154;2022-11-15T09:19:37;11.80;99.90
3638;DHT22;1835;50.068;8.154;2022-11-15T09:22:06;11.70;99.90
3638;DHT22;1835;50.068;8.154;2022-11-15T09:24:35;11.80;99.90
3638;DHT22;1835;50.068;8.154;2022-11-15T09:27:03;11.80;99.90
3638;DHT22;1835;50.068;8.154;2022-11-15T09:29:31;12.10;99.90
3638;DHT22;1835;50.068;8.154;2022-11-15T09:32:00;12.20;99.90
3638;DHT22;1835;50.068;8.154;2022-11-15T09:34:29;12.30;99.90
3638;DHT22;1835;50.068;8.154;2022-11-15T09:36:57;12.30;99.90
3638;DHT22;1835;50.068;8.154;2022-11-15T09:39:25;12.40;99.90
3638;DHT22;1835;50.068;8.154;2022-11-15T09:42:14;12.50;99.90
3638;DHT22;1835;50.068;8.154;2022-11-15T09:45:04;12.50;99.90
3638;DHT22;1835;50.068;8.154;2022-11-15T09:47:50;12.70;99.90
3638;DHT22;1835;50.068;8.154;2022-11-15T09:50:32;12.90;99.90
3638;DHT22;1835;50.068;8.154;2022-11-15T09:53:03;12.90;99.90
3638;DHT22;1835;50.068;8.154;2022-11-15T09:55:39;12.90;99.90
3638;DHT22;1835;50.068;8.154;2022-11-15T09:58:20;13.10;99.90
3638;DHT22;1835;50.068;8.154;2022-11-15T10:00:52;12.90;99.90
3638;DHT22;1835;50.068;8.154;2022-11-15T10:03:26;12.90;99.90
3638;DHT22;1835;50.068;8.154;2022-11-15T10:05:59;13.10;99.90
3638;DHT22;1835;50.068;8.154;2022-11-15T10:08:40;13.20;99.90
3638;DHT22;1835;50.068;8.154;2022-11-15T10:11:18;13.30;99.90
3638;DHT22;1835;50.068;8.154;2022-11-15T10:14:08;13.40;99.90
3638;DHT22;1835;50.068;8.154;2022-11-15T10:19:52;13.10;99.90
3638;DHT22;1835;50.068;8.154;2022-11-15T10:22:37;13.00;99.90
3638;DHT22;1835;50.068;8.154;2022-11-15T10:25:16;13.00;99.90
3638;DHT22;1835;50.068;8.154;2022-11-15T10:27:55;13.30;99.90
3638;DHT22;1835;50.068;8.154;2022-11-15T10:30:31;13.60;99.90
3638;DHT22;1835;50.068;8.154;2022-11-15T10:33:24;13.70;99.90
3638;DHT22;1835;50.068;8.154;2022-11-15T10:36:17;13.70;99.90
3638;DHT22;1835;50.068;8.154;2022-11-15T10:38:56;13.60;99.90
3638;DHT22;1835;50.068;8.154;2022-11-15T10:41:35;13.60;99.90
3638;DHT22;1835;50.068;8.154;2022-11-15T10:44:22;13.50;99.90
3638;DHT22;1835;50.068;8.154;2022-11-15T10:50:07;13.10;99.90
3638;DHT22;1835;50.068;8.154;2022-11-15T10:52:54;13.20;99.90
3638;DHT22;1835;50.068;8.154;2022-11-15T10:55:26;13.30;99.90
3638;DHT22;1835;50.068;8.154;2022-11-15T10:58:01;13.30;99.90
3638;DHT22;1835;50.068;8.154;2022-11-15T11:00:34;13.30;99.90
3638;DHT22;1835;50.068;8.154;2022-11-15T11:03:06;13.50;99.90
3638;DHT22;1835;50.068;8.154;2022-11-15T11:05:47;13.50;99.90
3638;DHT22;1835;50.068;8.154;2022-11-15T11:08:23;13.60;99.90
3638;DHT22;1835;50.068;8.154;2022-11-15T11:10:54;13.80;99.90
3638;DHT22;1835;50.068;8.154;2022-11-15T11:13:31;13.60;99.90
3638;DHT22;1835;50.068;8.154;2022-11-15T11:16:15;13.70;99.90
3638;DHT22;1835;50.068;8.154;2022-11-15T11:19:02;13.90;99.90
3638;DHT22;1835;50.068;8.154;2022-11-15T11:21:42;14.00;99.90
3638;DHT22;1835;50.068;8.154;2022-11-15T11:24:18;14.20;99.90
3638;DHT22;1835;50.068;8.154;2022-11-15T11:27:04;14.20;99.90
3638;DHT22;1835;50.068;8.154;2022-11-15T11:30:02;14.00;99.90
3638;DHT22;1835;50.068;8.154;2022-11-15T11:32:56;13.90;99.90
3638;DHT22;1835;50.068;8.154;2022-11-15T11:35:34;13.70;99.90
3638;DHT22;1835;50.068;8.154;2022-11-15T11:38:19;13.60;99.90
3638;DHT22;1835;50.068;8.154;2022-11-15T11:41:03;13.50;99.90
3638;DHT22;1835;50.068;8.154;2022-11-15T11:43:48;13.40;99.90
3638;DHT22;1835;50.068;8.154;2022-11-15T11:46:49;13.40;99.90
3638;DHT22;1835;50.068;8.154;2022-11-15T11:49:30;13.40;99.90
3638;DHT22;1835;50.068;8.154;2022-11-15T11:52:05;13.40;99.90
3638;DHT22;1835;50.068;8.154;2022-11-15T11:54:42;13.60;99.90
3638;DHT22;1835;50.068;8.154;2022-11-15T11:57:21;13.70;99.90
3638;DHT22;1835;50.068;8.154;2022-11-15T11:59:58;13.60;99.90
3638;DHT22;1835;50.068;8.154;2022-11-15T12:02:31;13.50;99.90
3638;DHT22;1835;50.068;8.154;2022-11-15T12:05:10;13.50;99.90
3638;DHT22;1835;50.068;8.154;2022-11-15T12:07:42;13.60;99.90
3638;DHT22;1835;50.068;8.154;2022-11-15T12:10:17;13.40;99.90
3638;DHT22;1835;50.068;8.154;2022-11-15T12:12:55;13.40;99.90
3638;DHT22;1835;50.068;8.154;2022-11-15T12:15:31;13.50;99.90
3638;DHT22;1835;50.068;8.154;2022-11-15T12:18:01;13.60;99.90
3638;DHT22;1835;50.068;8.154;2022-11-15T12:20:34;13.60;99.90
3638;DHT22;1835;50.068;8.154;2022-11-15T12:23:08;13.70;99.90
3638;DHT22;1835;50.068;8.154;2022-11-15T12:25:45;13.80;99.90
3638;DHT22;1835;50.068;8.154;2022-11-15T12:28:17;13.80;99.90
3638;DHT22;1835;50.068;8.154;2022-11-15T12:30:53;13.60;99.90
3638;DHT22;1835;50.068;8.154;2022-11-15T12:33:31;13.60;99.90
3638;DHT22;1835;50.068;8.154;2022-11-15T12:36:08;13.70;99.90
3638;DHT22;1835;50.068;8.154;2022-11-15T12:38:58;13.50;99.90
3638;DHT22;1835;50.068;8.154;2022-11-15T12:41:28;13.50;99.90
3638;DHT22;1835;50.068;8.154;2022-11-15T12:43:57;13.40;99.90
3638;DHT22;1835;50.068;8.154;2022-11-15T12:47:21;13.60;99.90
3638;DHT22;1835;50.068;8.154;2022-11-15T12:49:50;13.60;99.90
3638;DHT22;1835;50.068;8.154;2022-11-15T12:52:21;13.60;99.90
3638;DHT22;1835;50.068;8.154;2022-11-15T12:54:57;13.70;99.90
3638;DHT22;1835;50.068;8.154;2022-11-15T12:57:35;13.70;99.90
3638;DHT22;1835;50.068;8.154;2022-11-15T13:00:45;13.60;99.90
3638;DHT22;1835;50.068;8.154;2022-11-15T13:03:22;13.60;99.90
3638;DHT22;1835;50.068;8.154;2022-11-15T13:12:55;13.70;99.90
3638;DHT22;1835;50.068;8.154;2022-11-15T13:15:38;13.70;99.90
3638;DHT22;1835;50.068;8.154;2022-11-15T13:18:34;13.90;99.90
3638;DHT22;1835;50.068;8.154;2022-11-15T13:21:18;14.00;99.90
3638;DHT22;1835;50.068;8.154;2022-11-15T13:24:09;14.00;99.90
3638;DHT22;1835;50.068;8.154;2022-11-15T13:26:39;13.90;99.90
3638;DHT22;1835;50.068;8.154;2022-11-15T13:29:18;14.10;99.90
3638;DHT22;1835;50.068;8.154;2022-11-15T13:31:47;14.00;99.90
3638;DHT22;1835;50.068;8.154;2022-11-15T13:34:27;13.90;99.90
3638;DHT22;1835;50.068;8.154;2022-11-15T13:37:29;13.90;99.90
3638;DHT22;1835;50.068;8.154;2022-11-15T13:40:17;13.90;99.90
3638;DHT22;1835;50.068;8.154;2022-11-15T13:42:48;13.90;99.90
3638;DHT22;1835;50.068;8.154;2022-11-15T13:45:17;13.60;99.90
3638;DHT22;1835;50.068;8.154;2022-11-15T13:47:51;13.60;99.90
3638;DHT22;1835;50.068;8.154;2022-11-15T13:50:25;13.60;99.90
3638;DHT22;1835;50.068;8.154;2022-11-15T13:52:57;13.50;99.90
3638;DHT22;1835;50.068;8.154;2022-11-15T13:55:28;13.60;99.90
3638;DHT22;1835;50.068;8.154;2022-11-15T13:58:01;13.70;99.90
3638;DHT22;1835;50.068;8.154;2022-11-15T14:00:35;13.50;99.90
3638;DHT22;1835;50.068;8.154;2022-11-15T14:03:10;13.50;99.90
3638;DHT22;1835;50.068;8.154;2022-11-15T14:06:03;13.50;99.90
3638;DHT22;1835;50.068;8.154;2022-11-15T14:08:35;13.60;99.90
3638;DHT22;1835;50.068;8.154;2022-11-15T14:11:15;13.70;99.90
3638;DHT22;1835;50.068;8.154;2022-11-15T14:14:04;13.50;99.90
3638;DHT22;1835;50.068;8.154;2022-11-15T14:16:40;13.30;99.90
3638;DHT22;1835;50.068;8.154;2022-11-15T14:19:11;13.40;99.90
3638;DHT22;1835;50.068;8.154;2022-11-15T14:25:15;13.30;99.90
3638;DHT22;1835;50.068;8.154;2022-11-15T14:28:14;13.10;99.90
3638;DHT22;1835;50.068;8.154;2022-11-15T14:30:45;13.10;99.90
3638;DHT22;1835;50.068;8.154;2022-11-15T14:33:20;13.20;99.90
3638;DHT22;1835;50.068;8.154;2022-11-15T14:35:51;13.20;99.90
3638;DHT22;1835;50.068;8.154;2022-11-15T14:38:19;13.00;99.90
3638;DHT22;1835;50.068;8.154;2022-11-15T14:40:47;13.00;99.90
3638;DHT22;1835;50.068;8.154;2022-11-15T14:43:17;13.10;99.90
3638;DHT22;1835;50.068;8.154;2022-11-15T14:45:45;13.20;99.90
3638;DHT22;1835;50.068;8.154;2022-11-15T14:48:13;13.20;99.90
3638;DHT22;1835;50.068;8.154;2022-11-15T14:50:41;13.40;99.90
3638;DHT22;1835;50.068;8.154;2022-11-15T14:53:12;13.50;99.90
3638;DHT22;1835;50.068;8.154;2022-11-15T14:55:43;13.50;99.90
3638;DHT22;1835;50.068;8.154;2022-11-15T14:58:11;13.60;99.90
3638;DHT22;1835;50.068;8.154;2022-11-15T15:00:41;13.80;99.90
3638;DHT22;1835;50.068;8.154;2022-11-15T15:03:09;13.70;99.90
3638;DHT22;1835;50.068;8.154;2022-11-15T15:05:39;13.50;99.90
3638;DHT22;1835;50.068;8.154;2022-11-15T15:08:08;13.50;99.90
3638;DHT22;1835;50.068;8.154;2022-11-15T15:10:39;13.50;99.90
3638;DHT22;1835;50.068;8.154;2022-11-15T15:13:16;13.50;99.90
3638;DHT22;1835;50.068;8.154;2022-11-15T15:15:47;13.60;99.90
3638;DHT22;1835;50.068;8.154;2022-11-15T15:18:16;13.60;99.90
3638;DHT22;1835;50.068;8.154;2022-11-15T15:20:51;13.50;99.90
3638;DHT22;1835;50.068;8.154;2022-11-15T15:23:22;13.50;99.90
3638;DHT22;1835;50.068;8.154;2022-11-15T15:25:52;13.20;99.90
3638;DHT22;1835;50.068;8.154;2022-11-15T15:28:20;13.40;99.90
3638;DHT22;1835;50.068;8.154;2022-11-15T15:30:50;13.50;99.90
3638;DHT22;1835;50.068;8.154;2022-11-15T15:33:20;13.50;99.90
3638;DHT22;1835;50.068;8.154;2022-11-15T15:35:48;13.60;99.90
3638;DHT22;1835;50.068;8.154;2022-11-15T15:38:16;13.60;99.90
3638;DHT22;1835;50.068;8.154;2022-11-15T15:40:45;13.30;99.90
3638;DHT22;1835;50.068;8.154;2022-11-15T15:43:17;13.40;99.90
3638;DHT22;1835;50.068;8.154;2022-11-15T15:45:45;13.40;99.90
3638;DHT22;1835;50.068;8.154;2022-11-15T15:48:16;13.40;99.90
3638;DHT22;1835;50.068;8.154;2022-11-15T15:50:44;13.40;99.90
3638;DHT22;1835;50.068;8.154;2022-11-15T15:53:12;13.30;99.90
3638;DHT22;1835;50.068;8.154;2022-11-15T15:55:41;13.20;99.90
3638;DHT22;1835;50.068;8.154;2022-11-15T15:58:09;13.20;99.90
3638;DHT22;1835;50.068;8.154;2022-11-15T16:00:37;13.20;99.90
3638;DHT22;1835;50.068;8.154;2022-11-15T16:03:05;13.00;99.90
3638;DHT22;1835;50.068;8.154;2022-11-15T16:05:35;13.10;99.90
3638;DHT22;1835;50.068;8.154;2022-11-15T16:08:03;13.10;99.90
3638;DHT22;1835;50.068;8.154;2022-11-15T16:10:32;12.90;99.90
3638;DHT22;1835;50.068;8.154;2022-11-15T16:13:02;13.00;99.90
3638;DHT22;1835;50.068;8.154;2022-11-15T16:15:31;13.00;99.90
3638;DHT22;1835;50.068;8.154;2022-11-15T16:18:00;13.20;99.90
3638;DHT22;1835;50.068;8.154;2022-11-15T16:20:32;13.00;99.90
3638;DHT22;1835;50.068;8.154;2022-11-15T16:23:05;12.80;99.90
3638;DHT22;1835;50.068;8.154;2022-11-15T16:25:40;12.80;99.90
3638;DHT22;1835;50.068;8.154;2022-11-15T16:28:22;12.80;99.90
3638;DHT22;1835;50.068;8.154;2022-11-15T16:30:59;12.70;99.90
3638;DHT22;1835;50.068;8.154;2022-11-15T16:33:28;12.70;99.90
3638;DHT22;1835;50.068;8.154;2022-11-15T16:35:58;12.70;99.90
3638;DHT22;1835;50.068;8.154;2022-11-15T16:38:26;12.70;99.90
3638;DHT22;1835;50.068;8.154;2022-11-15T16:40:55;12.60;99.90
3638;DHT22;1835;50.068;8.154;2022-11-15T16:43:23;12.70;99.90
3638;DHT22;1835;50.068;8.154;2022-11-15T16:45:51;12.70;99.90
3638;DHT22;1835;50.068;8.154;2022-11-15T16:48:23;12.70;99.90
3638;DHT22;1835;50.068;8.154;2022-11-15T16:50:54;12.70;99.90
3638;DHT22;1835;50.068;8.154;2022-11-15T16:53:26;12.70;99.90
3638;DHT22;1835;50.068;8.154;2022-11-15T16:55:55;12.70;99.90
3638;DHT22;1835;50.068;8.154;2022-11-15T16:58:24;12.80;99.90
3638;DHT22;1835;50.068;8.154;2022-11-15T17:00:52;12.80;99.90
3638;DHT22;1835;50.068;8.154;2022-11-15T17:03:22;12.50;99.90